»·PEaware :: N2070X KFMN-KPRC

N2070X :: KFMN-KPRC

FLIGHT INFORMATION

Flight Status: Arrived
Operator: Privately registered:
United States
More flights under this callsign
Pilot: Roger K. (8372)
Aircraft: Unknown
(CE T)
More flights by this aircraft type
Origin: KFMN Four Corners Regl
United States
Destination: KPRC Love
United States
More flights between these airports :: More routes between these airports
Route: +CHACO1 GUP V291 INW V12 DRK
File this flight plan on PilotEdge
Remarks: +CW /
Altitude:
(Current/Filed)
11,000ft
Speed:
(Current/Filed)
120kts
Departed: 16-Jul-19 02:32 PM
Arrived: 16-Jul-19 04:34 PM
Distance/Time
Traveled:
240nm/2:02
Distance/Time
To Go:
Arrived

Flight Plot

Page will automatically refresh every two minutes.

Flight plan parsing failed; only flown route is shown


Map Options




Map Legend


Flown Route
Filed Route
Departure Airport
Arrival Airport
Navaid (VOR, NDB)
Fix

Horizontal Profiles

Position Reports

Time Latitude Longitude Heading Altitude Ground
Speed
16-Jul-19 14:06 36.739962 -108.225868 270 5507ft 0kts
16-Jul-19 14:07 36.739962 -108.225868 270 5507ft 0kts
16-Jul-19 14:08 36.739962 -108.225868 270 5507ft 0kts
16-Jul-19 14:09 36.739962 -108.225868 270 5507ft 0kts
16-Jul-19 14:10 36.739962 -108.225868 270 5507ft 0kts
16-Jul-19 14:11 36.739962 -108.225868 270 5507ft 0kts
16-Jul-19 14:12 36.739962 -108.225868 270 5507ft 0kts
16-Jul-19 14:13 36.739962 -108.225868 270 5507ft 0kts
16-Jul-19 14:14 36.739962 -108.225868 270 5507ft 0kts
16-Jul-19 14:15 36.739962 -108.225868 270 5507ft 0kts
16-Jul-19 14:16 36.739962 -108.225868 270 5507ft 0kts
16-Jul-19 14:17 36.739962 -108.225868 270 5507ft 0kts
16-Jul-19 14:18 36.739962 -108.225868 270 5507ft 0kts
16-Jul-19 14:19 36.739962 -108.225868 270 5507ft 0kts
16-Jul-19 14:20 36.739962 -108.225868 270 5507ft 0kts
16-Jul-19 14:21 36.739962 -108.225868 270 5507ft 0kts
16-Jul-19 14:22 36.739962 -108.225868 270 5507ft 0kts
16-Jul-19 14:23 36.739962 -108.225868 270 5507ft 0kts
16-Jul-19 14:24 36.739962 -108.225868 270 5507ft 0kts
16-Jul-19 14:25 36.739962 -108.225868 270 5507ft 0kts
16-Jul-19 14:26 36.740266 -108.226223 333 5507ft 2kts
16-Jul-19 14:27 36.740680 -108.224343 87 5507ft 11kts
16-Jul-19 14:28 36.740793 -108.219458 87 5507ft 12kts
16-Jul-19 14:29 36.740828 -108.218523 91 5507ft 0kts
16-Jul-19 14:30 36.741000 -108.217452 62 5507ft 15kts
16-Jul-19 14:31 36.741178 -108.234122 269 5590ft 104kts
16-Jul-19 14:32 36.719342 -108.249671 138 6268ft 145kts
16-Jul-19 14:33 36.682716 -108.239216 191 6869ft 147kts
16-Jul-19 14:35 36.641993 -108.247060 190 7478ft 147kts
16-Jul-19 14:36 36.601833 -108.254410 190 8011ft 146kts
16-Jul-19 14:37 36.561670 -108.261747 190 8514ft 146kts
16-Jul-19 14:38 36.521276 -108.269120 190 9019ft 147kts
16-Jul-19 14:39 36.480962 -108.276472 190 9521ft 147kts
16-Jul-19 14:40 36.441267 -108.287204 208 10020ft 145kts
16-Jul-19 14:41 36.405011 -108.309474 208 10522ft 146kts
16-Jul-19 14:42 36.368835 -108.331669 208 11020ft 143kts
16-Jul-19 14:43 36.333693 -108.353185 208 11518ft 139kts
16-Jul-19 14:44 36.298984 -108.374435 208 12020ft 139kts
16-Jul-19 14:45 36.264458 -108.395546 208 12520ft 139kts
16-Jul-19 14:46 36.230028 -108.416560 208 12885ft 134kts
16-Jul-19 14:47 36.196309 -108.437096 208 12018ft 132kts
16-Jul-19 14:48 36.161428 -108.458396 208 12031ft 145kts
16-Jul-19 14:49 36.124592 -108.480856 208 11998ft 148kts
16-Jul-19 14:50 36.087650 -108.503321 208 11998ft 148kts
16-Jul-19 14:51 36.050532 -108.525870 208 11998ft 148kts
16-Jul-19 14:52 36.013542 -108.548310 208 11998ft 148kts
16-Jul-19 14:52 35.982664 -108.567007 208 11998ft 148kts
16-Jul-19 14:54 35.939630 -108.593079 208 12016ft 147kts
16-Jul-19 14:55 35.902731 -108.615403 208 12016ft 148kts
16-Jul-19 14:55 35.871993 -108.633154 210 12015ft 145kts
16-Jul-19 14:57 35.829949 -108.658330 210 12016ft 143kts
16-Jul-19 14:57 35.800253 -108.676226 210 12016ft 143kts
16-Jul-19 14:58 35.764897 -108.697526 210 12016ft 143kts
16-Jul-19 15:00 35.723037 -108.722711 210 12015ft 143kts
16-Jul-19 15:00 35.693426 -108.740507 210 12015ft 142kts
16-Jul-19 15:01 35.658033 -108.761760 210 12015ft 141kts
16-Jul-19 15:03 35.616720 -108.786550 210 12015ft 141kts
16-Jul-19 15:03 35.587310 -108.804180 210 12015ft 141kts
16-Jul-19 15:04 35.551870 -108.825405 210 12015ft 141kts
16-Jul-19 15:05 35.516516 -108.846556 210 12015ft 141kts
16-Jul-19 15:06 35.481205 -108.867664 210 12015ft 141kts
16-Jul-19 15:07 35.468036 -108.909268 257 12015ft 135kts
16-Jul-19 15:08 35.459050 -108.953332 256 12015ft 135kts
16-Jul-19 15:09 35.450107 -108.996498 256 12014ft 135kts
16-Jul-19 15:10 35.441200 -109.039375 256 12015ft 135kts
16-Jul-19 15:11 35.432508 -109.081135 256 12015ft 135kts
16-Jul-19 15:12 35.423689 -109.123520 256 12003ft 141kts
16-Jul-19 15:13 35.413697 -109.172597 255 12016ft 154kts
16-Jul-19 15:14 35.402996 -109.223801 255 12015ft 156kts
16-Jul-19 15:15 35.392363 -109.274461 255 12015ft 157kts
16-Jul-19 15:16 35.381606 -109.325599 255 12015ft 157kts
16-Jul-19 15:17 35.370713 -109.377258 255 12015ft 157kts
16-Jul-19 15:18 35.359760 -109.429088 255 12015ft 156kts
16-Jul-19 15:19 35.348812 -109.480773 255 12016ft 157kts
16-Jul-19 15:20 35.337795 -109.532671 255 12016ft 157kts
16-Jul-19 15:21 35.326743 -109.584605 255 12016ft 157kts
16-Jul-19 15:22 35.315687 -109.636443 255 12016ft 157kts
16-Jul-19 15:23 35.304589 -109.688362 255 12017ft 157kts
16-Jul-19 15:24 35.293458 -109.740314 255 12017ft 157kts
16-Jul-19 15:25 35.282325 -109.792162 255 12017ft 157kts
16-Jul-19 15:26 35.271194 -109.843878 255 12017ft 157kts
16-Jul-19 15:27 35.260010 -109.895727 255 12017ft 158kts
16-Jul-19 15:28 35.249055 -109.946420 255 12017ft 158kts
16-Jul-19 15:29 35.237814 -109.998288 255 12018ft 158kts
16-Jul-19 15:30 35.226575 -110.050038 255 12018ft 158kts
16-Jul-19 15:31 35.215431 -110.101251 254 12018ft 158kts
16-Jul-19 15:32 35.205271 -110.147912 254 12015ft 157kts
16-Jul-19 15:33 35.194096 -110.199045 254 11999ft 159kts
16-Jul-19 15:34 35.182735 -110.250922 254 11997ft 157kts
16-Jul-19 15:35 35.171460 -110.302289 254 11997ft 157kts
16-Jul-19 15:36 35.160611 -110.351603 254 11997ft 157kts
16-Jul-19 15:37 35.149996 -110.399753 254 11997ft 157kts
16-Jul-19 15:38 35.138706 -110.450856 254 11998ft 157kts
16-Jul-19 15:39 35.127287 -110.502429 254 11998ft 157kts
16-Jul-19 15:40 35.116222 -110.552296 254 11998ft 157kts
16-Jul-19 15:41 35.104772 -110.603788 254 11998ft 157kts
16-Jul-19 15:42 35.093251 -110.655490 254 11998ft 157kts
16-Jul-19 15:43 35.081726 -110.707091 254 11999ft 157kts
16-Jul-19 15:44 35.070143 -110.758840 254 11999ft 158kts
16-Jul-19 15:45 35.058670 -110.810411 255 11999ft 158kts
16-Jul-19 15:46 35.047825 -110.862409 255 11999ft 158kts
16-Jul-19 15:47 35.037085 -110.914507 255 11999ft 158kts
16-Jul-19 15:48 35.026361 -110.966458 255 11999ft 158kts
16-Jul-19 15:49 35.015617 -111.018393 255 12000ft 158kts
16-Jul-19 15:50 35.004858 -111.070282 255 12000ft 158kts
16-Jul-19 15:51 34.994207 -111.121586 255 11997ft 158kts
16-Jul-19 15:52 34.983812 -111.171523 255 11997ft 157kts
16-Jul-19 15:53 34.973273 -111.222010 255 11997ft 157kts
16-Jul-19 15:54 34.962495 -111.273529 255 11997ft 157kts
16-Jul-19 15:55 34.951683 -111.325089 255 11997ft 157kts
16-Jul-19 15:56 34.941297 -111.374504 255 11998ft 157kts
16-Jul-19 15:57 34.931557 -111.420751 255 11998ft 157kts
16-Jul-19 15:58 34.925722 -111.464586 269 11998ft 157kts
16-Jul-19 15:59 34.922821 -111.506541 264 11993ft 144kts
16-Jul-19 16:00 34.918693 -111.549027 263 11994ft 121kts
16-Jul-19 16:01 34.915052 -111.585194 263 12000ft 122kts
16-Jul-19 16:02 34.911192 -111.623360 263 11999ft 127kts
16-Jul-19 16:03 34.907211 -111.662539 263 11999ft 128kts
16-Jul-19 16:04 34.903161 -111.702259 263 12000ft 131kts
16-Jul-19 16:05 34.899061 -111.742304 263 11998ft 127kts
16-Jul-19 16:06 34.895077 -111.781053 263 11998ft 124kts
16-Jul-19 16:07 34.891169 -111.818964 263 11999ft 123kts
16-Jul-19 16:08 34.887195 -111.857620 263 11822ft 121kts
16-Jul-19 16:09 34.883434 -111.895988 262 11337ft 115kts
16-Jul-19 16:10 34.879598 -111.935570 261 10870ft 124kts
16-Jul-19 16:11 34.875521 -111.977066 261 10397ft 126kts
16-Jul-19 16:12 34.871627 -112.016969 260 10016ft 115kts
16-Jul-19 16:13 34.867729 -112.055234 259 10027ft 121kts
16-Jul-19 16:14 34.863430 -112.095783 259 10023ft 121kts
16-Jul-19 16:15 34.859417 -112.134243 258 10020ft 116kts
16-Jul-19 16:16 34.855372 -112.172666 258 10022ft 117kts
16-Jul-19 16:17 34.851168 -112.211956 259 10022ft 122kts
16-Jul-19 16:18 34.869590 -112.230722 47 9889ft 105kts
16-Jul-19 16:19 34.887795 -112.207379 63 9418ft 99kts
16-Jul-19 16:20 34.876026 -112.186907 179 8989ft 90kts
16-Jul-19 16:21 34.858909 -112.203338 210 8827ft 74kts
16-Jul-19 16:22 34.842191 -112.220992 211 9013ft 104kts
16-Jul-19 16:23 34.819326 -112.245099 213 9005ft 115kts
16-Jul-19 16:24 34.798206 -112.267682 213 8683ft 116kts
16-Jul-19 16:25 34.776804 -112.290508 213 8088ft 107kts
16-Jul-19 16:26 34.759523 -112.309064 212 7641ft 89kts
16-Jul-19 16:27 34.745240 -112.324299 212 7245ft 88kts
16-Jul-19 16:28 34.731260 -112.339050 213 6878ft 95kts
16-Jul-19 16:29 34.716936 -112.354230 213 6499ft 91kts
16-Jul-19 16:30 34.702460 -112.369564 213 6125ft 88kts
16-Jul-19 16:31 34.683816 -112.388804 215 5623ft 88kts
16-Jul-19 16:32 34.667253 -112.406523 218 5166ft 68kts
16-Jul-19 16:33 34.657702 -112.416112 209 5043ft 4kts
16-Jul-19 16:34 34.656602 -112.415743 181 5043ft 0kts
16-Jul-19 16:35 34.654350 -112.417845 217 5043ft 14kts
16-Jul-19 16:36 34.651765 -112.420559 219 5043ft 13kts
16-Jul-19 16:37 34.648057 -112.424518 220 5043ft 16kts
16-Jul-19 16:38 34.646957 -112.424395 69 5043ft 0kts

Navigation Log

Ident Type
Flight plan parsing failed, navigation log unavailable